Terminal Aerodrome Forecast
Issued by NWS

Home | Current Version | Previous Version | Text Only | Print | Product List | Glossary On
Versions: 1 2 3 4 5 6 7 8 9 10 11 12 13 14 15 16 17
510
FTUS43 KEAX 232128 AAA
TAFSTJ
TAF AMD
KSTJ 232128Z 2321/2418 18018G30KT P6SM VCTS BKN040CB
     FM240100 19011KT P6SM VCTS BKN035CB
     FM241000 19010KT P6SM BKN014
     FM241500 20011KT P6SM SCT040=

USA.gov is the U.S. government's official web portal to all federal, state and local government web resources and services.